createdAt,value
2022-11-21T00:01:18.318Z,-0.46
2022-11-21T00:04:48.975Z,-0.54
2022-11-21T00:08:19.933Z,-0.57
2022-11-21T00:11:53.276Z,-0.59
2022-11-21T00:15:20.863Z,-0.62
2022-11-21T00:18:48.499Z,-0.63
2022-11-21T00:22:16.482Z,-0.64
2022-11-21T00:25:44.364Z,-0.65
2022-11-21T00:29:15.497Z,-0.65
2022-11-21T00:32:44.694Z,-0.63
2022-11-21T00:36:13.541Z,-0.60
2022-11-21T00:39:41.522Z,-0.55
2022-11-21T00:43:45.996Z,-0.45
2022-11-21T00:47:13.271Z,-0.42
2022-11-21T00:50:40.201Z,-0.43
2022-11-21T00:54:07.840Z,-0.44
2022-11-21T00:57:35.201Z,-0.47
2022-11-21T01:01:11.049Z,-0.53
2022-11-21T01:04:38.855Z,-0.62
2022-11-21T01:08:06.035Z,-0.69
2022-11-21T01:11:33.452Z,-0.77
2022-11-21T01:15:00.169Z,-0.85
2022-11-21T01:18:32.750Z,-0.96
2022-11-21T01:22:05.920Z,-1.09
2022-11-21T01:25:34.843Z,-1.21
2022-11-21T01:29:01.932Z,-1.32
2022-11-21T01:32:29.549Z,-1.44
2022-11-21T01:35:56.591Z,-1.56
2022-11-21T01:39:26.216Z,-1.66
2022-11-21T01:43:05.872Z,-1.75
2022-11-21T01:46:33.657Z,-1.82
2022-11-21T01:50:01.430Z,-1.88
2022-11-21T01:53:34.114Z,-1.93
2022-11-21T01:57:09.343Z,-1.98
2022-11-21T02:00:42.264Z,-2.01
2022-11-21T02:04:17.107Z,-2.02
2022-11-21T02:07:47.056Z,-2.01
2022-11-21T02:11:24.869Z,-1.98
2022-11-21T02:14:53.459Z,-1.97
2022-11-21T02:18:20.684Z,-2.00
2022-11-21T02:21:56.472Z,-2.05
2022-11-21T02:25:26.015Z,-2.12
2022-11-21T02:28:53.103Z,-2.24
2022-11-21T02:32:27.821Z,-2.32
2022-11-21T02:36:03.581Z,-2.38
2022-11-21T02:39:35.367Z,-2.46
2022-11-21T02:43:10.405Z,-2.54
2022-11-21T02:46:38.030Z,-2.63
2022-11-21T02:50:12.231Z,-2.67
2022-11-21T02:53:39.797Z,-2.72
2022-11-21T02:57:07.598Z,-2.77
2022-11-21T03:00:36.472Z,-2.80
2022-11-21T03:04:03.712Z,-2.86
2022-11-21T03:07:32.721Z,-2.91
2022-11-21T03:10:59.939Z,-2.97
2022-11-21T03:14:26.968Z,-3.00
2022-11-21T03:17:54.428Z,-3.00
2022-11-21T03:21:21.701Z,-2.98
2022-11-21T03:24:49.213Z,-2.96
2022-11-21T03:28:16.850Z,-2.93
2022-11-21T03:31:43.846Z,-2.90
2022-11-21T03:35:11.561Z,-2.87
2022-11-21T03:38:38.250Z,-2.85
2022-11-21T03:42:05.471Z,-2.85
2022-11-21T03:45:32.423Z,-2.90
2022-11-21T03:49:00.651Z,-2.96
2022-11-21T03:52:28.043Z,-2.99
2022-11-21T03:55:54.848Z,-3.05
2022-11-21T03:59:21.546Z,-3.11
2022-11-21T04:02:48.317Z,-3.17
2022-11-21T04:06:16.395Z,-3.25
2022-11-21T04:09:42.736Z,-3.34
2022-11-21T04:13:09.412Z,-3.45
2022-11-21T04:16:36.363Z,-3.49
2022-11-21T04:20:04.535Z,-3.57
2022-11-21T04:23:31.900Z,-3.63
2022-11-21T04:26:58.638Z,-3.66
2022-11-21T04:30:25.021Z,-3.70
2022-11-21T04:33:51.454Z,-3.73
2022-11-21T04:37:18.066Z,-3.76
2022-11-21T04:40:48.547Z,-3.78
2022-11-21T04:44:15.441Z,-3.82
2022-11-21T04:47:43.194Z,-3.86
2022-11-21T04:51:10.268Z,-3.90
2022-11-21T04:54:37.183Z,-3.93
2022-11-21T04:58:03.760Z,-3.97
2022-11-21T05:01:30.760Z,-3.98
2022-11-21T05:04:58.260Z,-3.99
2022-11-21T05:08:25.143Z,-3.98
2022-11-21T05:12:09.841Z,-3.95
2022-11-21T05:15:36.481Z,-3.89
2022-11-21T05:19:03.081Z,-3.82
2022-11-21T05:22:30.134Z,-3.75
2022-11-21T05:25:56.788Z,-3.68
2022-11-21T05:29:28.036Z,-3.63
2022-11-21T05:32:56.320Z,-3.63
2022-11-21T05:36:23.081Z,-3.62
2022-11-21T05:39:49.473Z,-3.62
2022-11-21T05:43:34.685Z,-3.62
2022-11-21T05:47:01.533Z,-3.61
2022-11-21T05:50:28.387Z,-3.57
2022-11-21T05:53:55.551Z,-3.52
2022-11-21T05:57:22.510Z,-3.48
2022-11-21T06:00:49.599Z,-3.45
2022-11-21T06:04:16.815Z,-3.39
2022-11-21T06:07:43.943Z,-3.35
2022-11-21T06:11:14.566Z,-3.33
2022-11-21T06:14:41.405Z,-3.30
2022-11-21T06:18:08.043Z,-3.28
2022-11-21T06:21:37.501Z,-3.25
2022-11-21T06:25:03.954Z,-3.20
2022-11-21T06:28:32.554Z,-3.13
2022-11-21T06:31:59.316Z,-3.07
2022-11-21T06:35:26.179Z,-3.04
2022-11-21T06:38:54.259Z,-2.95
2022-11-21T06:42:21.111Z,-2.84
2022-11-21T06:45:47.860Z,-2.76
2022-11-21T06:49:14.770Z,-2.73
2022-11-21T06:52:42.190Z,-2.68
2022-11-21T06:56:09.073Z,-2.60
2022-11-21T06:59:36.035Z,-2.57
2022-11-21T07:03:05.239Z,-2.57
2022-11-21T07:06:35.365Z,-2.54
2022-11-21T07:10:02.115Z,-2.52
2022-11-21T07:13:30.600Z,-2.51
2022-11-21T07:16:57.268Z,-2.49
2022-11-21T07:20:24.224Z,-2.47
2022-11-21T07:23:50.872Z,-2.46
2022-11-21T07:27:18.716Z,-2.44
2022-11-21T07:30:45.753Z,-2.41
2022-11-21T07:34:13.234Z,-2.36
2022-11-21T07:37:42.468Z,-2.34
2022-11-21T07:41:09.013Z,-2.30
2022-11-21T07:44:36.073Z,-2.21
2022-11-21T07:48:03.979Z,-2.11
2022-11-21T07:51:31.991Z,-2.00
2022-11-21T07:54:59.416Z,-1.87
2022-11-21T07:58:26.327Z,-1.73
2022-11-21T08:01:53.962Z,-1.57
2022-11-21T08:05:20.829Z,-1.38
2022-11-21T08:08:48.449Z,-1.20
2022-11-21T08:12:15.937Z,-1.07
2022-11-21T08:15:42.886Z,-0.95
2022-11-21T08:19:09.541Z,-0.83
2022-11-21T08:22:39.040Z,-0.76
2022-11-21T08:26:06.137Z,-0.71
2022-11-21T08:29:33.359Z,-0.66
2022-11-21T08:33:01.284Z,-0.64
2022-11-21T08:36:28.328Z,-0.65
2022-11-21T08:39:55.350Z,-0.67
2022-11-21T08:43:22.198Z,-0.68
2022-11-21T08:46:48.826Z,-0.67
2022-11-21T08:50:16.449Z,-0.65
2022-11-21T08:53:43.065Z,-0.64
2022-11-21T08:57:09.538Z,-0.62
2022-11-21T09:00:36.518Z,-0.60
2022-11-21T09:04:03.598Z,-0.59
2022-11-21T09:07:30.767Z,-0.55
2022-11-21T09:10:59.047Z,-0.53
2022-11-21T09:14:43.920Z,-0.50
2022-11-21T09:18:12.573Z,-0.43
2022-11-21T09:21:39.289Z,-0.36
2022-11-21T09:25:06.683Z,-0.30
2022-11-21T09:28:33.352Z,-0.20
2022-11-21T09:32:00.217Z,-0.11
2022-11-21T09:35:30.511Z,-0.04
2022-11-21T09:38:59.906Z,0.04
2022-11-21T09:42:54.563Z,0.07
2022-11-21T09:46:27.811Z,0.08
2022-11-21T09:49:58.620Z,0.10
2022-11-21T09:53:31.875Z,0.11
2022-11-21T09:57:02.436Z,0.11
2022-11-21T10:00:29.526Z,0.11
2022-11-21T10:04:28.172Z,0.11
2022-11-21T10:08:01.442Z,0.11
2022-11-21T10:11:59.207Z,0.06
2022-11-21T10:15:44.413Z,0.02
2022-11-21T10:19:50.875Z,0.01
2022-11-21T10:23:35.812Z,-0.01
2022-11-21T10:27:13.550Z,-0.00
2022-11-21T10:30:47.918Z,-0.02
2022-11-21T10:34:19.176Z,0.00
2022-11-21T10:37:51.646Z,0.06
2022-11-21T10:41:26.035Z,0.15
2022-11-21T10:45:11.053Z,0.25
2022-11-21T10:48:39.708Z,0.38
2022-11-21T10:52:16.383Z,0.46
2022-11-21T10:56:01.676Z,0.55
2022-11-21T10:59:33.325Z,0.63
2022-11-21T11:03:07.373Z,0.69
2022-11-21T11:06:32.563Z,0.76
2022-11-21T11:10:27.562Z,0.77
2022-11-21T11:14:00.680Z,0.79
2022-11-21T11:17:33.121Z,0.77
2022-11-21T11:21:15.429Z,0.73
2022-11-21T11:24:57.624Z,0.71
2022-11-21T11:28:34.994Z,0.68
2022-11-21T11:32:05.147Z,0.66
2022-11-21T11:35:36.070Z,0.61
2022-11-21T11:39:08.155Z,0.57
2022-11-21T11:46:52.524Z,0.54
2022-11-21T11:50:24.379Z,0.45
2022-11-21T11:53:59.904Z,0.42
2022-11-21T11:57:38.563Z,0.45
2022-11-21T12:01:12.883Z,0.49
2022-11-21T12:04:47.323Z,0.54
2022-11-21T12:12:18.003Z,0.62
2022-11-21T12:15:54.554Z,0.68
2022-11-21T12:19:25.202Z,0.71
2022-11-21T12:22:55.490Z,0.71
2022-11-21T12:26:52.629Z,0.67
2022-11-21T12:30:54.425Z,0.62
2022-11-21T12:34:38.469Z,0.58
2022-11-21T12:38:30.505Z,0.54
2022-11-21T12:42:19.369Z,0.49
2022-11-21T12:45:52.413Z,0.45
2022-11-21T12:49:54.401Z,0.42
2022-11-21T12:53:49.876Z,0.37
2022-11-21T12:57:18.307Z,0.29
2022-11-21T13:01:03.143Z,0.25
2022-11-21T13:04:36.726Z,0.19
2022-11-21T13:08:07.680Z,0.15
2022-11-21T13:12:01.004Z,0.14
2022-11-21T13:15:38.466Z,0.15
2022-11-21T13:19:17.595Z,0.17
2022-11-21T13:23:28.878Z,0.20
2022-11-21T13:26:58.489Z,0.23
2022-11-21T13:30:28.904Z,0.27
2022-11-21T13:33:56.757Z,0.32
2022-11-21T13:37:54.593Z,0.38
2022-11-21T13:42:22.197Z,0.44
2022-11-21T13:45:50.789Z,0.46
2022-11-21T13:49:22.733Z,0.45
2022-11-21T13:52:57.599Z,0.41
2022-11-21T13:56:37.465Z,0.36
2022-11-21T14:00:22.048Z,0.30
2022-11-21T14:04:16.333Z,0.24
2022-11-21T14:07:45.328Z,0.15
2022-11-21T14:11:37.259Z,0.09
2022-11-21T14:15:27.676Z,0.03
2022-11-21T14:18:55.292Z,-0.01
2022-11-21T14:22:34.754Z,-0.05
2022-11-21T14:26:06.366Z,-0.11
2022-11-21T14:29:42.924Z,-0.15
2022-11-21T14:33:34.524Z,-0.24
2022-11-21T14:37:05.408Z,-0.20
2022-11-21T14:40:32.562Z,-0.17
2022-11-21T14:44:18.863Z,-0.14
2022-11-21T14:47:54.499Z,-0.09
2022-11-21T14:51:27.816Z,-0.04
2022-11-21T14:55:28.128Z,0.03
2022-11-21T14:58:43.751Z,0.09
2022-11-21T15:02:17.781Z,0.11
2022-11-21T15:06:01.752Z,0.13
2022-11-21T15:13:45.175Z,0.13
2022-11-21T15:17:18.782Z,0.09
2022-11-21T15:20:50.329Z,0.04
2022-11-21T15:24:29.382Z,0.01
2022-11-21T15:28:11.808Z,-0.04
2022-11-21T15:31:38.891Z,-0.07
2022-11-21T15:35:40.570Z,-0.11
2022-11-21T15:39:14.666Z,-0.13
2022-11-21T15:42:42.373Z,-0.15
2022-11-21T15:46:17.635Z,-0.18
2022-11-21T15:49:44.440Z,-0.24
2022-11-21T15:53:21.658Z,-0.27
2022-11-21T15:56:49.914Z,-0.23
2022-11-21T16:00:19.566Z,-0.19
2022-11-21T16:03:49.991Z,-0.16
2022-11-21T16:07:18.675Z,-0.13
2022-11-21T16:10:45.888Z,-0.10
2022-11-21T16:14:17.308Z,-0.03
2022-11-21T16:17:47.376Z,0.05
2022-11-21T16:21:15.410Z,0.12
2022-11-21T16:24:43.009Z,0.18
2022-11-21T16:28:12.851Z,0.18
2022-11-21T16:31:40.114Z,0.20
2022-11-21T16:35:10.943Z,0.22
2022-11-21T16:38:39.815Z,0.19
2022-11-21T16:42:11.722Z,0.15
2022-11-21T16:45:41.522Z,0.06
2022-11-21T16:49:09.272Z,0.01
2022-11-21T16:52:42.293Z,-0.02
2022-11-21T16:56:12.158Z,-0.06
2022-11-21T16:59:41.957Z,-0.14
2022-11-21T17:03:11.700Z,-0.18
2022-11-21T17:06:41.072Z,-0.21
2022-11-21T17:10:09.386Z,-0.19
2022-11-21T17:13:36.648Z,-0.16
2022-11-21T17:17:03.755Z,-0.13
2022-11-21T17:20:30.759Z,-0.12
2022-11-21T17:23:57.729Z,-0.09
2022-11-21T17:27:29.657Z,-0.05
2022-11-21T17:30:57.327Z,0.03
2022-11-21T17:34:28.424Z,0.12
2022-11-21T17:38:02.167Z,0.21
2022-11-21T17:41:33.194Z,0.28
2022-11-21T17:45:00.273Z,0.32
2022-11-21T17:48:32.576Z,0.30
2022-11-21T17:52:01.898Z,0.29
2022-11-21T17:55:28.858Z,0.26
2022-11-21T17:58:56.751Z,0.22
2022-11-21T18:02:27.471Z,0.16
2022-11-21T18:06:05.150Z,0.08
2022-11-21T18:09:34.910Z,0.03
2022-11-21T18:13:10.952Z,-0.01
2022-11-21T18:16:52.793Z,-0.06
2022-11-21T18:20:21.326Z,-0.08
2022-11-21T18:23:48.394Z,-0.08
2022-11-21T18:27:15.990Z,-0.09
2022-11-21T18:30:45.269Z,-0.08
2022-11-21T18:34:13.240Z,-0.03
2022-11-21T18:37:44.848Z,0.01
2022-11-21T18:41:18.902Z,-0.00
2022-11-21T18:44:47.081Z,0.04
2022-11-21T18:48:17.113Z,0.09
2022-11-21T18:51:48.100Z,0.06
2022-11-21T18:55:25.257Z,0.11
2022-11-21T18:58:58.769Z,0.12
2022-11-21T19:02:28.493Z,0.12
2022-11-21T19:05:56.575Z,0.10
2022-11-21T19:09:26.912Z,0.08
2022-11-21T19:13:01.772Z,0.05
2022-11-21T19:16:34.570Z,0.05
2022-11-21T19:20:02.279Z,0.04
2022-11-21T19:23:30.111Z,0.04
2022-11-21T19:27:03.257Z,0.01
2022-11-21T19:30:32.763Z,-0.02
2022-11-21T19:34:09.482Z,-0.05
2022-11-21T19:37:37.851Z,-0.07
2022-11-21T19:41:16.847Z,-0.06
2022-11-21T19:44:46.648Z,-0.02
2022-11-21T19:48:24.640Z,0.04
2022-11-21T19:51:52.612Z,0.09
2022-11-21T19:55:26.509Z,0.16
2022-11-21T19:59:03.694Z,0.22
2022-11-21T20:02:34.486Z,0.30
2022-11-21T20:06:08.044Z,0.36
2022-11-21T20:09:38.251Z,0.40
2022-11-21T20:13:05.237Z,0.39
2022-11-21T20:16:35.102Z,0.38
2022-11-21T20:20:07.698Z,0.31
2022-11-21T20:23:35.283Z,0.27
2022-11-21T20:27:06.831Z,0.25
2022-11-21T20:30:35.328Z,0.23
2022-11-21T20:34:06.101Z,0.21
2022-11-21T20:37:34.916Z,0.18
2022-11-21T20:41:02.145Z,0.14
2022-11-21T20:45:41.656Z,0.11
2022-11-21T20:48:20.218Z,0.06
2022-11-21T20:53:26.320Z,0.01
2022-11-21T20:55:39.529Z,-0.06
2022-11-21T20:59:07.935Z,-0.07
2022-11-21T21:02:37.819Z,-0.07
2022-11-21T21:06:07.387Z,-0.05
2022-11-21T21:09:36.909Z,-0.02
2022-11-21T21:13:07.317Z,0.03
2022-11-21T21:16:38.059Z,0.07
2022-11-21T21:20:14.119Z,0.06
2022-11-21T21:23:45.509Z,0.11
2022-11-21T21:27:14.302Z,0.16
2022-11-21T21:30:45.443Z,0.20
2022-11-21T21:34:19.178Z,0.24
2022-11-21T21:37:50.842Z,0.24
2022-11-21T21:41:21.232Z,0.23
2022-11-21T21:44:53.148Z,0.22
2022-11-21T21:48:20.016Z,0.19
2022-11-21T21:51:51.084Z,0.15
2022-11-21T21:55:20.703Z,0.10
2022-11-21T21:58:53.798Z,0.07
2022-11-21T22:02:24.764Z,0.05
2022-11-21T22:05:54.364Z,0.02
2022-11-21T22:09:21.657Z,-0.01
2022-11-21T22:12:54.511Z,-0.04
2022-11-21T22:16:23.241Z,-0.07
2022-11-21T22:19:51.930Z,-0.06
2022-11-21T22:23:20.074Z,-0.02
2022-11-21T22:26:46.894Z,0.02
2022-11-21T22:30:17.066Z,0.10
2022-11-21T22:33:46.222Z,0.16
2022-11-21T22:37:13.836Z,0.18
2022-11-21T22:40:44.272Z,0.19
2022-11-21T22:44:12.073Z,0.27
2022-11-21T22:47:47.567Z,0.31
2022-11-21T22:51:24.270Z,0.31
2022-11-21T22:54:51.761Z,0.32
2022-11-21T22:58:18.982Z,0.31
2022-11-21T23:01:49.602Z,0.28
2022-11-21T23:05:17.314Z,0.25
2022-11-21T23:08:45.745Z,0.16
2022-11-21T23:12:15.610Z,0.06
2022-11-21T23:15:43.536Z,0.11
2022-11-21T23:19:13.167Z,0.10
2022-11-21T23:22:40.687Z,0.06
2022-11-21T23:26:08.434Z,0.02
2022-11-21T23:29:36.115Z,-0.01
2022-11-21T23:33:03.476Z,-0.01
2022-11-21T23:36:31.131Z,-0.01
2022-11-21T23:39:58.951Z,-0.02
2022-11-21T23:43:27.956Z,-0.02
2022-11-21T23:46:56.700Z,0.02
2022-11-21T23:50:28.976Z,0.09
2022-11-21T23:53:58.676Z,0.12
2022-11-21T23:57:26.436Z,0.12
